createdAt,value
2023-02-03T00:02:23.837Z,16.48
2023-02-03T00:04:52.158Z,15.98
2023-02-03T00:07:19.736Z,18.25
2023-02-03T00:09:48.024Z,15.52
2023-02-03T00:12:15.550Z,14.48
2023-02-03T00:14:45.795Z,17.60
2023-02-03T00:17:15.250Z,18.05
2023-02-03T00:19:42.973Z,19.27
2023-02-03T00:22:10.551Z,15.75
2023-02-03T00:24:38.413Z,20.58
2023-02-03T00:27:06.386Z,16.73
2023-02-03T00:29:33.918Z,16.65
2023-02-03T00:32:01.550Z,16.85
2023-02-03T00:34:30.436Z,16.45
2023-02-03T00:36:58.036Z,19.70
2023-02-03T00:39:25.774Z,20.95
2023-02-03T00:41:53.327Z,20.35
2023-02-03T00:44:20.900Z,22.70
2023-02-03T00:46:48.866Z,22.02
2023-02-03T00:49:16.414Z,16.48
2023-02-03T00:51:44.016Z,16.92
2023-02-03T00:54:12.185Z,20.23
2023-02-03T00:56:41.244Z,17.83
2023-02-03T00:59:08.749Z,21.17
2023-02-03T01:01:36.387Z,20.10
2023-02-03T01:04:04.265Z,37.05
2023-02-03T01:06:33.143Z,21.85
2023-02-03T01:09:02.438Z,20.33
2023-02-03T01:11:30.074Z,18.02
2023-02-03T01:14:01.012Z,17.35
2023-02-03T01:18:57.556Z,21.52
2023-02-03T01:21:25.979Z,16.88
2023-02-03T01:23:53.652Z,19.08
2023-02-03T01:26:22.696Z,21.92
2023-02-03T01:28:58.616Z,21.38
2023-02-03T01:31:28.381Z,21.83
2023-02-03T01:33:56.406Z,16.10
2023-02-03T01:36:26.162Z,18.98
2023-02-03T01:38:53.889Z,25.98
2023-02-03T01:41:24.657Z,17.23
2023-02-03T01:43:53.918Z,16.92
2023-02-03T01:46:35.795Z,33.30
2023-02-03T01:49:30.089Z,31.55
2023-02-03T01:51:57.662Z,19.95
2023-02-03T01:54:27.895Z,23.23
2023-02-03T01:56:59.621Z,24.20
2023-02-03T01:59:27.226Z,22.95
2023-02-03T02:01:56.722Z,23.70
2023-02-03T02:04:26.825Z,26.52
2023-02-03T02:06:56.808Z,19.00
2023-02-03T02:09:25.394Z,21.35
2023-02-03T02:11:53.980Z,28.20
2023-02-03T02:14:21.748Z,38.15
2023-02-03T02:17:06.545Z,33.13
2023-02-03T02:19:43.885Z,31.63
2023-02-03T02:22:32.151Z,25.08
2023-02-03T02:25:25.169Z,29.80
2023-02-03T02:28:14.444Z,27.85
2023-02-03T02:30:57.379Z,28.58
2023-02-03T02:33:46.342Z,25.77
2023-02-03T02:36:26.001Z,24.02
2023-02-03T02:38:56.546Z,28.85
2023-02-03T02:41:35.516Z,28.90
2023-02-03T02:44:21.881Z,28.67
2023-02-03T02:46:54.117Z,29.50
2023-02-03T02:49:44.821Z,29.63
2023-02-03T02:52:13.445Z,27.10
2023-02-03T02:54:44.924Z,30.67
2023-02-03T02:57:13.514Z,32.28
2023-02-03T02:59:41.069Z,34.33
2023-02-03T03:02:12.926Z,35.22
2023-02-03T03:04:41.508Z,36.10
2023-02-03T03:07:12.893Z,32.47
2023-02-03T03:09:48.504Z,55.33
2023-02-03T03:12:28.670Z,62.42
2023-02-03T03:15:05.035Z,53.90
2023-02-03T03:17:37.768Z,42.08
2023-02-03T03:20:08.688Z,46.38
2023-02-03T03:22:39.017Z,42.90
2023-02-03T03:25:12.910Z,45.33
2023-02-03T03:27:42.376Z,48.65
2023-02-03T03:30:23.905Z,49.03
2023-02-03T03:32:51.607Z,41.80
2023-02-03T03:35:19.828Z,48.20
2023-02-03T03:38:05.886Z,59.70
2023-02-03T03:40:35.414Z,41.67
2023-02-03T03:43:06.559Z,46.75
2023-02-03T03:45:57.268Z,46.33
2023-02-03T03:48:52.554Z,38.03
2023-02-03T03:51:39.896Z,50.88
2023-02-03T03:54:11.938Z,50.17
2023-02-03T03:56:45.790Z,50.28
2023-02-03T03:59:13.520Z,47.67
2023-02-03T04:01:41.099Z,51.90
2023-02-03T04:04:12.767Z,43.03
2023-02-03T04:06:40.475Z,35.78
2023-02-03T04:09:08.100Z,37.97
2023-02-03T04:11:54.654Z,57.85
2023-02-03T04:14:22.320Z,38.70
2023-02-03T04:16:49.953Z,41.58
2023-02-03T04:19:17.566Z,43.08
2023-02-03T04:21:46.530Z,45.15
2023-02-03T04:24:15.138Z,47.50
2023-02-03T04:26:43.185Z,48.78
2023-02-03T04:29:11.206Z,39.45
2023-02-03T04:31:39.068Z,49.95
2023-02-03T04:34:06.828Z,53.78
2023-02-03T04:36:35.045Z,52.42
2023-02-03T04:39:03.180Z,56.50
2023-02-03T04:41:32.864Z,51.72
2023-02-03T04:44:00.592Z,53.83
2023-02-03T04:46:28.169Z,49.75
2023-02-03T04:48:55.725Z,52.00
2023-02-03T04:51:23.301Z,46.75
2023-02-03T04:53:50.860Z,43.47
2023-02-03T04:56:18.481Z,37.72
2023-02-03T04:58:46.129Z,42.25
2023-02-03T05:01:13.729Z,36.05
2023-02-03T05:03:41.337Z,44.72
2023-02-03T05:06:08.956Z,41.10
2023-02-03T05:08:36.783Z,37.50
2023-02-03T05:11:05.864Z,41.95
2023-02-03T05:13:34.658Z,39.03
2023-02-03T05:16:02.272Z,35.85
2023-02-03T05:18:29.936Z,31.60
2023-02-03T05:20:57.476Z,40.70
2023-02-03T05:23:25.132Z,32.70
2023-02-03T05:25:52.856Z,37.85
2023-02-03T05:28:20.377Z,37.10
2023-02-03T05:30:48.094Z,42.42
2023-02-03T05:33:15.738Z,42.80
2023-02-03T05:35:43.388Z,45.25
2023-02-03T05:38:10.958Z,44.60
2023-02-03T05:40:57.129Z,45.38
2023-02-03T05:43:25.163Z,45.25
2023-02-03T05:45:52.726Z,45.38
2023-02-03T05:48:20.343Z,42.10
2023-02-03T05:50:47.934Z,37.08
2023-02-03T05:53:15.457Z,35.10
2023-02-03T05:55:43.308Z,36.17
2023-02-03T05:58:10.927Z,35.08
2023-02-03T06:00:39.135Z,35.90
2023-02-03T06:03:25.190Z,34.35
2023-02-03T06:05:53.523Z,34.38
2023-02-03T06:08:21.045Z,37.83
2023-02-03T06:10:48.879Z,36.92
2023-02-03T06:13:16.679Z,32.88
2023-02-03T06:15:45.231Z,34.03
2023-02-03T06:18:12.807Z,30.63
2023-02-03T06:20:40.445Z,29.98
2023-02-03T06:23:07.976Z,27.45
2023-02-03T06:25:36.162Z,26.38
2023-02-03T06:28:05.059Z,28.75
2023-02-03T06:30:33.379Z,29.90
2023-02-03T06:33:00.989Z,34.28
2023-02-03T06:35:28.824Z,191.52
2023-02-03T06:37:56.555Z,49.17
2023-02-03T06:40:24.049Z,58.80
2023-02-03T06:42:51.662Z,36.50
2023-02-03T06:45:19.291Z,92.72
2023-02-03T06:47:47.134Z,294.65
2023-02-03T06:50:15.945Z,43.92
2023-02-03T06:52:43.831Z,144.10
2023-02-03T06:55:11.395Z,48.63
2023-02-03T06:57:46.863Z,67.35
2023-02-03T07:00:18.414Z,50.72
2023-02-03T07:02:46.697Z,27.40
2023-02-03T07:05:14.373Z,31.30
2023-02-03T07:07:42.249Z,41.13
2023-02-03T07:10:10.408Z,30.08
2023-02-03T07:12:38.511Z,28.63
2023-02-03T07:15:06.372Z,29.65
2023-02-03T07:17:34.275Z,50.75
2023-02-03T07:20:01.961Z,32.50
2023-02-03T07:22:30.292Z,80.85
2023-02-03T07:24:57.889Z,33.17
2023-02-03T07:27:28.117Z,50.35
2023-02-03T07:29:55.737Z,37.33
2023-02-03T07:32:23.288Z,69.68
2023-02-03T07:34:50.896Z,38.25
2023-02-03T07:37:18.861Z,29.48
2023-02-03T07:39:47.322Z,32.88
2023-02-03T07:42:16.017Z,33.22
2023-02-03T07:44:46.680Z,67.53
2023-02-03T07:47:34.178Z,24.52
2023-02-03T07:50:02.215Z,25.75
2023-02-03T07:52:30.116Z,25.60
2023-02-03T07:54:58.095Z,30.63
2023-02-03T07:57:25.911Z,44.67
2023-02-03T07:59:53.924Z,45.80
2023-02-03T08:02:21.566Z,20.88
2023-02-03T08:04:49.416Z,45.60
2023-02-03T08:07:17.294Z,22.45
2023-02-03T08:09:45.050Z,24.42
2023-02-03T08:12:12.888Z,22.63
2023-02-03T08:14:42.892Z,18.33
2023-02-03T08:17:11.026Z,17.15
2023-02-03T08:19:38.791Z,20.35
2023-02-03T08:22:06.549Z,23.83
2023-02-03T08:24:34.246Z,21.15
2023-02-03T08:27:01.920Z,24.35
2023-02-03T08:29:29.927Z,28.17
2023-02-03T08:31:58.913Z,29.52
2023-02-03T08:34:27.044Z,34.45
2023-02-03T08:36:54.736Z,28.48
2023-02-03T08:39:23.146Z,23.33
2023-02-03T08:41:50.947Z,29.13
2023-02-03T08:44:19.969Z,27.23
2023-02-03T08:46:53.829Z,24.48
2023-02-03T08:49:21.504Z,23.27
2023-02-03T08:51:49.114Z,39.35
2023-02-03T08:54:17.148Z,22.42
2023-02-03T08:56:45.428Z,25.15
2023-02-03T08:59:13.307Z,22.75
2023-02-03T09:01:44.881Z,21.55
2023-02-03T09:06:40.459Z,15.98
2023-02-03T09:09:08.059Z,20.55
2023-02-03T09:11:35.961Z,15.82
2023-02-03T09:14:04.037Z,16.30
2023-02-03T09:16:33.382Z,19.02
2023-02-03T09:19:01.103Z,17.08
2023-02-03T09:21:34.160Z,16.27
2023-02-03T09:24:09.069Z,15.43
2023-02-03T09:26:37.510Z,15.85
2023-02-03T09:29:05.413Z,15.93
2023-02-03T09:31:33.824Z,18.40
2023-02-03T09:34:01.530Z,17.45
2023-02-03T09:36:29.523Z,15.07
2023-02-03T09:38:58.320Z,15.35
2023-02-03T09:41:44.615Z,15.73
2023-02-03T09:44:13.938Z,15.68
2023-02-03T09:46:46.430Z,18.77
2023-02-03T09:49:18.679Z,14.27
2023-02-03T09:52:02.901Z,16.63
2023-02-03T09:54:33.764Z,15.27
2023-02-03T09:57:02.395Z,19.83
2023-02-03T09:59:30.088Z,16.13
2023-02-03T10:02:16.986Z,16.42
2023-02-03T10:05:01.029Z,18.83
2023-02-03T10:07:51.196Z,16.23
2023-02-03T10:10:35.233Z,17.90
2023-02-03T10:13:05.997Z,18.55
2023-02-03T10:15:45.047Z,17.65
2023-02-03T10:18:25.691Z,18.15
2023-02-03T10:20:58.360Z,18.45
2023-02-03T10:23:31.894Z,19.02
2023-02-03T10:26:01.167Z,22.80
2023-02-03T10:28:42.729Z,44.95
2023-02-03T10:33:45.660Z,24.35
2023-02-03T10:36:23.027Z,20.45
2023-02-03T10:38:59.238Z,23.55
2023-02-03T10:41:26.945Z,14.73
2023-02-03T10:43:56.056Z,15.80
2023-02-03T10:46:34.015Z,20.70
2023-02-03T10:49:02.287Z,19.42
2023-02-03T10:51:42.155Z,22.40
2023-02-03T10:54:30.665Z,22.15
2023-02-03T10:57:02.263Z,18.63
2023-02-03T10:59:33.447Z,24.95
2023-02-03T11:02:08.008Z,18.20
2023-02-03T11:04:36.219Z,17.92
2023-02-03T11:07:07.637Z,19.67
2023-02-03T11:09:40.086Z,19.95
2023-02-03T11:12:14.087Z,14.73
2023-02-03T11:14:49.739Z,17.95
2023-02-03T11:17:26.391Z,15.48
2023-02-03T11:19:55.312Z,16.33
2023-02-03T11:22:28.182Z,29.33
2023-02-03T11:24:55.746Z,28.77
2023-02-03T11:27:25.062Z,45.05
2023-02-03T11:30:30.426Z,71.32
2023-02-03T11:33:01.096Z,124.53
2023-02-03T11:35:30.122Z,145.40
2023-02-03T11:37:59.395Z,83.10
2023-02-03T11:40:34.371Z,93.07
2023-02-03T11:43:16.009Z,52.75
2023-02-03T11:48:37.868Z,47.65
2023-02-03T11:51:26.397Z,30.98
2023-02-03T11:54:24.015Z,28.30
2023-02-03T11:57:30.757Z,28.33
2023-02-03T12:00:31.200Z,23.67
2023-02-03T12:03:01.521Z,28.90
2023-02-03T12:05:53.897Z,29.55
2023-02-03T12:08:41.036Z,27.08
2023-02-03T12:11:30.177Z,24.90
2023-02-03T12:14:05.042Z,20.90
2023-02-03T12:16:35.540Z,21.48
2023-02-03T12:19:26.277Z,34.97
2023-02-03T12:22:15.008Z,32.88
2023-02-03T12:24:58.638Z,29.58
2023-02-03T12:27:32.826Z,66.57
2023-02-03T12:30:04.740Z,47.28
2023-02-03T12:32:37.227Z,18.50
2023-02-03T12:35:32.023Z,15.07
2023-02-03T12:38:03.623Z,17.52
2023-02-03T12:40:41.403Z,15.02
2023-02-03T12:43:24.826Z,14.82
2023-02-03T12:45:55.666Z,14.68
2023-02-03T12:48:26.385Z,16.35
2023-02-03T12:50:56.709Z,13.07
2023-02-03T12:53:29.272Z,36.67
2023-02-03T12:56:12.517Z,15.35
2023-02-03T12:58:52.492Z,14.55
2023-02-03T13:01:24.910Z,11.93
2023-02-03T13:04:05.959Z,12.90
2023-02-03T13:07:02.700Z,13.10
2023-02-03T13:09:48.297Z,14.23
2023-02-03T13:12:27.977Z,15.57
2023-02-03T13:15:13.773Z,13.98
2023-02-03T13:18:20.375Z,14.00
2023-02-03T13:20:48.200Z,15.52
2023-02-03T13:23:16.062Z,13.70
2023-02-03T13:26:02.472Z,13.02
2023-02-03T13:28:30.196Z,18.88
2023-02-03T13:31:21.962Z,13.13
2023-02-03T13:33:52.584Z,12.48
2023-02-03T13:36:38.925Z,15.23
2023-02-03T13:39:36.383Z,19.55
2023-02-03T13:42:28.055Z,17.52
2023-02-03T13:44:58.857Z,28.92
2023-02-03T13:47:28.616Z,14.00
2023-02-03T13:50:01.511Z,51.67
2023-02-03T13:52:31.530Z,28.60
2023-02-03T13:54:59.235Z,19.73
2023-02-03T13:57:36.322Z,13.57
2023-02-03T14:00:45.401Z,19.35
2023-02-03T14:03:39.333Z,17.92
2023-02-03T14:06:30.753Z,23.15
2023-02-03T14:09:01.303Z,30.75
2023-02-03T14:11:34.982Z,33.20
2023-02-03T14:14:06.019Z,39.75
2023-02-03T14:16:40.646Z,42.03
2023-02-03T14:19:31.834Z,28.17
2023-02-03T14:24:33.637Z,19.15
2023-02-03T14:27:02.309Z,26.80
2023-02-03T14:29:32.254Z,21.00
2023-02-03T14:32:00.767Z,30.75
2023-02-03T14:34:32.030Z,31.45
2023-02-03T14:39:55.571Z,39.25
2023-02-03T14:42:32.084Z,62.35
2023-02-03T14:45:31.184Z,59.67
2023-02-03T14:48:14.010Z,51.75
2023-02-03T14:50:48.764Z,73.63
2023-02-03T14:53:26.222Z,27.35
2023-02-03T14:56:53.996Z,98.28
2023-02-03T14:59:22.186Z,50.67
2023-02-03T15:01:53.563Z,31.08
2023-02-03T15:04:23.331Z,128.60
2023-02-03T15:06:52.304Z,38.63
2023-02-03T15:09:23.576Z,52.63
2023-02-03T15:11:51.280Z,30.98
2023-02-03T15:14:21.222Z,68.65
2023-02-03T15:16:53.698Z,284.02
2023-02-03T15:19:24.017Z,105.97
2023-02-03T15:21:52.033Z,112.68
2023-02-03T15:24:22.980Z,146.30
2023-02-03T15:26:52.636Z,168.18
2023-02-03T15:29:28.188Z,111.07
2023-02-03T15:32:25.003Z,197.40
2023-02-03T15:34:53.537Z,791.50
2023-02-03T15:37:29.089Z,409.33
2023-02-03T15:40:08.951Z,299.83
2023-02-03T15:42:59.131Z,96.97
2023-02-03T15:45:29.111Z,56.58
2023-02-03T15:48:29.106Z,31.30
2023-02-03T15:51:00.547Z,26.88
2023-02-03T15:53:55.917Z,22.67
2023-02-03T15:56:48.536Z,21.95
2023-02-03T15:59:29.956Z,22.00
2023-02-03T16:04:25.380Z,22.58
2023-02-03T16:06:53.894Z,27.13
2023-02-03T16:09:40.599Z,26.48
2023-02-03T16:12:23.723Z,36.88
2023-02-03T16:14:52.153Z,36.60
2023-02-03T16:17:30.548Z,72.30
2023-02-03T16:20:13.627Z,76.07
2023-02-03T16:22:46.352Z,70.95
2023-02-03T16:25:20.183Z,59.33
2023-02-03T16:28:19.872Z,67.10
2023-02-03T16:31:31.250Z,58.70
2023-02-03T16:34:19.039Z,70.63
2023-02-03T16:37:04.877Z,69.88
2023-02-03T16:39:51.206Z,69.97
2023-02-03T16:42:38.359Z,71.20
2023-02-03T16:45:36.890Z,66.97
2023-02-03T16:48:23.520Z,68.03
2023-02-03T16:50:59.495Z,88.25
2023-02-03T16:53:30.344Z,72.82
2023-02-03T16:55:59.879Z,61.90
2023-02-03T16:58:27.561Z,55.42
2023-02-03T17:00:58.518Z,55.47
2023-02-03T17:03:27.468Z,39.75
2023-02-03T17:05:55.502Z,45.28
2023-02-03T17:08:24.779Z,42.92
2023-02-03T17:10:52.864Z,38.45
2023-02-03T17:13:21.354Z,46.67
2023-02-03T17:15:52.681Z,42.55
2023-02-03T17:18:20.799Z,39.70
2023-02-03T17:20:48.391Z,42.90
2023-02-03T17:23:18.932Z,40.20
2023-02-03T17:25:47.717Z,33.15
2023-02-03T17:28:15.440Z,38.65
2023-02-03T17:30:43.349Z,55.80
2023-02-03T17:33:13.892Z,47.10
2023-02-03T17:35:42.911Z,32.15
2023-02-03T17:38:11.527Z,47.35
2023-02-03T17:54:35.300Z,60.42
2023-02-03T17:57:03.436Z,56.30
2023-02-03T17:59:31.246Z,53.58
2023-02-03T18:01:59.935Z,70.00
2023-02-03T18:04:27.740Z,48.88
2023-02-03T18:06:55.302Z,57.80
2023-02-03T18:09:23.040Z,64.07
2023-02-03T18:11:50.789Z,65.97
2023-02-03T18:14:19.094Z,57.88
2023-02-03T18:16:47.177Z,75.07
2023-02-03T18:19:15.609Z,72.05
2023-02-03T18:21:43.350Z,64.47
2023-02-03T18:24:12.540Z,76.82
2023-02-03T18:26:51.253Z,71.30
2023-02-03T18:29:19.233Z,80.15
2023-02-03T18:31:47.299Z,102.65
2023-02-03T18:34:15.782Z,83.78
2023-02-03T18:36:43.311Z,87.03
2023-02-03T18:39:12.630Z,95.45
2023-02-03T18:41:40.647Z,97.07
2023-02-03T18:44:08.337Z,93.53
2023-02-03T18:46:36.184Z,76.03
2023-02-03T18:49:04.041Z,54.55
2023-02-03T18:51:32.589Z,42.38
2023-02-03T18:54:00.290Z,43.78
2023-02-03T18:56:35.127Z,34.38
2023-02-03T18:59:08.248Z,36.90
2023-02-03T19:01:36.984Z,40.70
2023-02-03T19:04:04.900Z,46.22
2023-02-03T19:06:34.523Z,58.95
2023-02-03T19:09:02.502Z,56.97
2023-02-03T19:11:30.427Z,47.92
2023-02-03T19:13:58.046Z,46.92
2023-02-03T19:16:26.438Z,44.60
2023-02-03T19:18:54.246Z,39.72
2023-02-03T19:21:21.906Z,56.90
2023-02-03T19:23:49.512Z,47.65
2023-02-03T19:26:17.106Z,37.85
2023-02-03T19:28:44.871Z,38.40
2023-02-03T19:31:15.329Z,48.15
2023-02-03T19:33:43.323Z,36.80
2023-02-03T19:36:11.286Z,35.28
2023-02-03T19:38:39.270Z,31.58
2023-02-03T19:41:08.176Z,36.22
2023-02-03T19:43:35.952Z,35.80
2023-02-03T19:46:03.671Z,34.22
2023-02-03T19:48:31.333Z,35.65
2023-02-03T19:50:59.025Z,34.67
2023-02-03T19:53:26.723Z,35.55
2023-02-03T19:55:54.388Z,35.47
2023-02-03T19:58:24.186Z,36.15
2023-02-03T20:00:51.840Z,39.92
2023-02-03T20:03:20.099Z,43.17
2023-02-03T20:05:47.658Z,50.15
2023-02-03T20:08:17.780Z,45.42
2023-02-03T20:10:46.915Z,34.92
2023-02-03T20:13:14.941Z,34.67
2023-02-03T20:15:42.583Z,37.80
2023-02-03T20:18:10.179Z,33.13
2023-02-03T20:20:38.025Z,39.55
2023-02-03T20:23:05.564Z,37.33
2023-02-03T20:25:33.501Z,31.83
2023-02-03T20:28:03.897Z,32.15
2023-02-03T20:30:32.088Z,27.92
2023-02-03T20:32:59.955Z,34.83
2023-02-03T20:35:28.181Z,31.55
2023-02-03T20:37:55.895Z,33.55
2023-02-03T20:40:24.075Z,39.42
2023-02-03T20:42:53.204Z,36.55
2023-02-03T20:45:22.285Z,35.65
2023-02-03T20:47:50.395Z,34.53
2023-02-03T20:50:20.133Z,35.22
2023-02-03T20:52:48.710Z,48.95
2023-02-03T20:55:18.448Z,45.45
2023-02-03T20:57:47.732Z,45.55
2023-02-03T21:00:20.562Z,43.83
2023-02-03T21:03:06.692Z,41.80
2023-02-03T21:05:39.985Z,45.88
2023-02-03T21:08:26.193Z,45.03
2023-02-03T21:10:55.029Z,42.15
2023-02-03T21:13:30.282Z,42.85
2023-02-03T21:16:00.120Z,39.67
2023-02-03T21:18:43.368Z,36.97
2023-02-03T21:21:15.506Z,33.83
2023-02-03T21:23:47.167Z,40.72
2023-02-03T21:26:28.974Z,40.58
2023-02-03T21:31:33.070Z,33.95
2023-02-03T21:34:02.793Z,39.60
2023-02-03T21:36:31.937Z,36.45
2023-02-03T21:39:00.187Z,36.33
2023-02-03T21:41:32.835Z,36.00
2023-02-03T21:44:00.608Z,40.55
2023-02-03T21:46:29.611Z,41.80
2023-02-03T21:48:59.068Z,42.38
2023-02-03T21:51:31.918Z,39.47
2023-02-03T21:54:00.740Z,48.30
2023-02-03T21:56:38.489Z,44.95
2023-02-03T21:59:13.619Z,50.28
2023-02-03T22:01:41.891Z,44.42
2023-02-03T22:04:09.502Z,50.33
2023-02-03T22:06:45.505Z,99.05
2023-02-03T22:09:23.813Z,51.65
2023-02-03T22:12:11.265Z,45.80
2023-02-03T22:14:39.352Z,83.25
2023-02-03T22:17:07.169Z,49.90
2023-02-03T22:19:34.810Z,54.45
2023-02-03T22:22:02.371Z,57.17
2023-02-03T22:24:30.294Z,45.95
2023-02-03T22:27:00.307Z,49.28
2023-02-03T22:29:27.842Z,48.67
2023-02-03T22:31:55.649Z,50.05
2023-02-03T22:34:23.786Z,49.58
2023-02-03T22:36:51.552Z,52.55
2023-02-03T22:39:19.166Z,57.00
2023-02-03T22:41:46.659Z,55.88
2023-02-03T22:44:16.328Z,51.83
2023-02-03T22:46:44.256Z,53.13
2023-02-03T22:49:11.822Z,53.97
2023-02-03T22:51:40.246Z,51.25
2023-02-03T22:54:07.809Z,54.35
2023-02-03T22:56:35.364Z,61.83
2023-02-03T22:59:02.964Z,53.47
2023-02-03T23:01:30.983Z,52.47
2023-02-03T23:03:58.557Z,57.22
2023-02-03T23:06:26.065Z,55.80
2023-02-03T23:08:55.539Z,348.58
2023-02-03T23:11:23.150Z,76.25
2023-02-03T23:13:51.868Z,61.30
2023-02-03T23:16:19.406Z,58.00
2023-02-03T23:18:47.213Z,57.10
2023-02-03T23:21:14.882Z,54.63
2023-02-03T23:23:42.468Z,54.10
2023-02-03T23:26:10.662Z,55.03
2023-02-03T23:28:38.279Z,52.38
2023-02-03T23:31:06.189Z,51.85
2023-02-03T23:33:34.105Z,52.50
2023-02-03T23:36:01.932Z,55.42
2023-02-03T23:38:29.923Z,63.65
2023-02-03T23:40:57.431Z,66.15
2023-02-03T23:43:25.207Z,163.40
2023-02-03T23:45:52.893Z,209.98
2023-02-03T23:48:20.438Z,228.38
2023-02-03T23:50:49.224Z,155.05
2023-02-03T23:53:17.080Z,116.30
2023-02-03T23:55:44.663Z,79.55
2023-02-03T23:58:12.271Z,69.70
